CheckWX is a tool to help pilots better visualize weather data.  It is not intended as a substitute for an official pre-flight weather briefing.

12:39:12 UTC

KRYV METAR
Watertown Municipal Airport
Watertown, Wisconsin, USA
Current

24 mins ago

KRYV 171215Z AUTO 17005KT 10SM CLR M01/M02 A3004 RMK AO2 T10111022
Observed
Nov-17 @ 12:15 UTC
Wind
  • 170° at 5 KTS
Visibility
10 SM
Flight Rules
VFR
Cloud Levels
  • Clear skies
Temperature
-1°C / 30°F
Dewpoint
-2°C / 28°F
Humidity
93%
Altimeter
30.04" Hg
Pressure
1017.32 hPa
Previous

44 mins ago

KRYV 171155Z AUTO 15006KT 10SM SCT120 M01/M02 A3003 RMK AO2 T10111021 11010 21015
Observed
Nov-17 @ 11:55 UTC
Wind
  • 150° at 6 KTS
Visibility
10 SM
Flight Rules
VFR
Cloud Levels
  • Scattered at 12,000' AGL
Temperature
-1°C / 30°F
Dewpoint
-2°C / 28°F
Humidity
93%
Altimeter
30.03" Hg
Pressure
1016.92 hPa
Previous

1 hour ago

KRYV 171135Z AUTO 12008KT 10SM CLR M01/M02 A3003 RMK AO2 T10121021
Observed
Nov-17 @ 11:35 UTC
Wind
  • 120° at 8 KTS
Visibility
10 SM
Flight Rules
VFR
Cloud Levels
  • Clear skies
Temperature
-1°C / 30°F
Dewpoint
-2°C / 28°F
Humidity
93%
Altimeter
30.03" Hg
Pressure
1016.92 hPa